Time;durP1;ratioP1;P1;durP2;ratioP2;P2;SDS_P1;SDS_P2;PMS_P1;PMS_P2;Temp;Humidity;BMP_temperature;BMP_pressure;BME280_temperature;BME280_humidity;BME280_pressure;Samples;Min_cycle;Max_cycle;Signal;HPM_P1;HPM_P2
2023/05/30 00:02:06;;;;;;;5.90;2.27;;;;;;;9.92;100.00;102403.28;5021083;28;20263;-78
2023/05/30 00:04:31;;;;;;;12.33;3.30;;;;;;;10.90;100.00;102590.06;5022041;28;20184;-77
2023/05/30 00:06:57;;;;;;;7.90;2.90;;;;;;;11.03;100.00;102575.22;5021881;28;20755;-78
2023/05/30 00:09:23;;;;;;;6.23;2.90;;;;;;;10.34;100.00;102493.78;5021106;28;20239;-77
2023/05/30 00:11:49;;;;;;;10.10;2.80;;;;;;;11.44;100.00;102661.41;5003529;28;20597;-78
2023/05/30 00:14:20;;;;;;;5.17;2.50;;;;;;;10.04;100.00;102432.50;5002941;28;20224;-78
2023/05/30 00:16:46;;;;;;;9.00;2.60;;;;;;;12.39;100.00;102823.56;5021957;28;20508;-78
2023/05/30 00:19:11;;;;;;;7.43;2.40;;;;;;;11.07;100.00;102618.72;5009794;28;20964;-77
2023/05/30 00:21:37;;;;;;;4.17;2.40;;;;;;;10.95;100.00;102598.50;5022024;28;20470;-77
2023/05/30 00:24:04;;;;;;;6.73;2.63;;;;;;;12.05;100.00;102801.19;4997671;28;20192;-78
2023/05/30 00:26:30;;;;;;;6.00;2.20;;;;;;;11.26;100.00;102656.09;5021176;28;21044;-78
2023/05/30 00:28:56;;;;;;;7.73;2.87;;;;;;;9.89;100.00;102451.84;5004028;28;20440;-77
2023/05/30 00:31:21;;;;;;;7.27;2.77;;;;;;;12.02;100.00;102796.16;5021098;28;20468;-78
2023/05/30 00:33:46;;;;;;;10.13;2.83;;;;;;;12.17;100.00;102827.66;5003559;28;20702;-77
2023/05/30 00:36:12;;;;;;;10.40;2.73;;;;;;;10.81;100.00;102621.41;5020202;28;20197;-77
2023/05/30 00:38:40;;;;;;;6.27;2.30;;;;;;;11.42;100.00;102676.84;5022497;28;20207;-78
2023/05/30 00:41:05;;;;;;;4.93;2.40;;;;;;;11.07;100.00;102607.97;5021530;28;20226;-78
2023/05/30 00:43:31;;;;;;;9.30;2.70;;;;;;;10.91;100.00;102594.47;5018445;28;20962;-78
2023/05/30 00:45:56;;;;;;;8.07;2.90;;;;;;;10.96;100.00;102643.13;5022820;28;20188;-78
2023/05/30 00:48:23;;;;;;;8.50;2.60;;;;;;;10.10;100.00;102459.56;5021928;28;20188;-78
2023/05/30 00:50:49;;;;;;;7.37;2.40;;;;;;;11.28;100.00;102653.25;5021164;28;21067;-78
2023/05/30 00:53:15;;;;;;;8.30;2.97;;;;;;;10.57;100.00;102541.56;5020081;28;20457;-78
2023/05/30 00:55:41;;;;;;;11.80;3.17;;;;;;;10.51;100.00;102513.50;5021769;28;20427;-78
2023/05/30 00:58:08;;;;;;;6.23;2.50;;;;;;;10.18;100.00;102486.44;5011105;28;20433;-78
2023/05/30 01:00:38;;;;;;;7.00;3.17;;;;;;;9.99;100.00;102418.75;5027155;28;20431;-78
2023/05/30 01:03:04;;;;;;;8.63;2.77;;;;;;;10.81;100.00;102608.81;5021252;28;20450;-78
2023/05/30 01:05:30;;;;;;;8.30;2.77;;;;;;;11.01;100.00;102632.78;5021542;28;20431;-77
2023/05/30 01:07:56;;;;;;;10.00;3.50;;;;;;;11.30;100.00;102713.88;5020432;28;20195;-78
2023/05/30 01:10:22;;;;;;;7.73;2.97;;;;;;;11.22;100.00;102678.88;5017263;28;20443;-79
2023/05/30 01:13:13;;;;;;;8.00;3.03;;;;;;;12.28;100.00;102815.75;5018908;28;20212;-78
2023/05/30 01:15:55;;;;;;;6.67;2.87;;;;;;;11.75;100.00;102796.13;5008700;28;20466;-78
2023/05/30 01:18:31;;;;;;;6.20;3.30;;;;;;;10.96;100.00;102614.44;5021079;28;20966;-78
2023/05/30 01:21:03;;;;;;;4.30;2.33;;;;;;;10.09;100.00;102448.97;5010059;28;20444;-78
2023/05/30 01:23:49;;;;;;;7.20;2.50;;;;;;;12.19;100.00;102812.19;5018052;28;20454;-78
2023/05/30 01:26:26;;;;;;;7.30;2.70;;;;;;;12.30;100.00;102811.06;5020912;28;20471;-77
2023/05/30 01:28:55;;;;;;;8.10;2.47;;;;;;;10.76;100.00;102573.56;5008478;28;20525;-78
2023/05/30 01:31:23;;;;;;;11.07;3.00;;;;;;;10.53;100.00;102534.81;5020764;28;20791;-78
2023/05/30 01:33:49;;;;;;;8.67;2.67;;;;;;;10.30;100.00;102535.34;5003717;28;20463;-77
2023/05/30 01:36:14;;;;;;;8.93;3.07;;;;;;;11.58;100.00;102729.00;5008057;28;20471;-77
2023/05/30 01:38:40;;;;;;;7.23;2.50;;;;;;;9.50;100.00;102413.81;5020813;28;20525;-77
2023/05/30 01:41:21;;;;;;;7.20;3.00;;;;;;;10.13;100.00;102496.78;5020896;28;20188;-78
2023/05/30 01:44:03;;;;;;;7.90;2.53;;;;;;;12.02;100.00;102833.78;5019936;28;20189;-77
2023/05/30 01:46:34;;;;;;;10.70;2.77;;;;;;;10.73;100.00;102634.75;5021792;28;20467;-78
2023/05/30 01:49:09;;;;;;;6.97;2.57;;;;;;;12.04;100.00;102831.81;5001441;28;20446;-78
2023/05/30 01:51:47;;;;;;;4.20;2.30;;;;;;;11.20;100.00;102688.13;5023055;28;20469;-78
2023/05/30 01:54:16;;;;;;;7.50;2.87;;;;;;;11.75;100.00;102795.31;5018239;28;20513;-78
2023/05/30 01:56:44;;;;;;;5.17;2.50;;;;;;;11.20;100.00;102697.03;5001160;28;20435;-77
2023/05/30 01:59:11;;;;;;;8.33;3.30;;;;;;;10.46;100.00;102611.56;5020321;28;20442;-77
2023/05/30 02:01:38;;;;;;;7.70;2.70;;;;;;;9.47;100.00;102414.13;5020430;28;20452;-78
2023/05/30 02:04:04;;;;;;;11.17;3.73;;;;;;;12.10;100.00;102848.13;5020658;28;20522;-77
2023/05/30 02:06:29;;;;;;;9.80;2.93;;;;;;;10.21;100.00;102521.97;5010464;28;20510;-78
2023/05/30 02:08:55;;;;;;;7.60;3.80;;;;;;;10.08;100.00;102527.72;5006488;28;20184;-78
2023/05/30 02:11:20;;;;;;;12.23;2.60;;;;;;;9.74;100.00;102475.66;5015573;28;20213;-78
2023/05/30 02:13:46;;;;;;;5.50;2.17;;;;;;;10.61;100.00;102602.78;5017064;28;20211;-78
2023/05/30 02:16:12;;;;;;;5.77;2.87;;;;;;;10.36;100.00;102591.03;5016879;28;20708;-77
2023/05/30 02:18:40;;;;;;;7.93;2.20;;;;;;;11.56;100.00;102752.50;5017582;28;20193;-77
2023/05/30 02:21:06;;;;;;;9.70;3.00;;;;;;;11.37;100.00;102715.91;5015851;28;20449;-77
2023/05/30 02:23:32;;;;;;;10.53;2.87;;;;;;;10.91;100.00;102621.31;5001529;28;20435;-77
2023/05/30 02:25:57;;;;;;;10.13;2.57;;;;;;;10.42;100.00;102616.41;5019021;28;20826;-77
2023/05/30 02:28:23;;;;;;;6.23;2.73;;;;;;;10.25;100.00;102582.34;5018202;28;20626;-77
2023/05/30 02:30:48;;;;;;;6.30;2.73;;;;;;;9.86;100.00;102516.47;5019754;28;20196;-77
2023/05/30 02:33:14;;;;;;;10.10;2.40;;;;;;;9.73;100.00;102506.13;5017066;28;20278;-77
2023/05/30 02:35:39;;;;;;;8.47;2.63;;;;;;;9.68;100.00;102484.31;4999688;28;20212;-78
2023/05/30 02:38:05;;;;;;;7.57;3.07;;;;;;;10.79;100.00;102663.66;5018755;28;20192;-77
2023/05/30 02:40:30;;;;;;;7.13;2.97;;;;;;;10.00;100.00;102538.38;5003879;28;20195;-77
2023/05/30 02:42:57;;;;;;;9.47;3.00;;;;;;;11.96;100.00;102856.78;5017022;28;20213;-78
2023/05/30 02:45:22;;;;;;;10.43;3.00;;;;;;;9.50;100.00;102446.78;5001758;28;20188;-78
2023/05/30 02:47:48;;;;;;;9.57;3.10;;;;;;;11.47;100.00;102767.72;5020434;28;20813;-78
2023/05/30 02:50:13;;;;;;;14.33;3.40;;;;;;;10.74;100.00;102645.34;4999083;28;20188;-77
2023/05/30 02:52:38;;;;;;;9.40;2.47;;;;;;;11.72;100.00;102792.94;5014899;28;20678;-78
2023/05/30 02:55:04;;;;;;;8.57;3.00;;;;;;;11.02;100.00;102686.34;5019620;28;20287;-77
2023/05/30 02:57:30;;;;;;;8.70;2.83;;;;;;;10.06;100.00;102537.75;5018275;28;20198;-77
2023/05/30 02:59:56;;;;;;;8.87;2.90;;;;;;;11.46;100.00;102758.00;5019019;28;20481;-77
2023/05/30 03:02:21;;;;;;;5.67;2.27;;;;;;;10.82;100.00;102684.84;5001042;28;20215;-77
2023/05/30 03:04:47;;;;;;;6.53;2.30;;;;;;;11.11;100.00;102703.34;5018678;28;20561;-79
2023/05/30 03:07:13;;;;;;;6.10;2.83;;;;;;;12.21;100.00;102895.44;5018842;28;20189;-78
2023/05/30 03:09:40;;;;;;;5.73;3.03;;;;;;;11.20;100.00;102723.91;5001365;28;20607;-78
2023/05/30 03:12:06;;;;;;;12.40;3.40;;;;;;;12.20;100.00;102894.59;5005612;28;20506;-77
2023/05/30 03:14:32;;;;;;;10.43;3.27;;;;;;;9.88;100.00;102514.47;5002840;28;20557;-78
2023/05/30 03:16:57;;;;;;;8.23;2.77;;;;;;;9.90;100.00;102512.50;5004642;28;20446;-77
2023/05/30 03:19:22;;;;;;;6.67;2.73;;;;;;;9.99;100.00;102513.41;5022140;28;20216;-77
2023/05/30 03:21:49;;;;;;;6.30;2.87;;;;;;;10.56;100.00;102629.28;5024549;28;20211;-78
2023/05/30 03:24:15;;;;;;;10.10;2.63;;;;;;;11.73;100.00;102800.81;5004838;28;20624;-77
2023/05/30 03:26:41;;;;;;;9.27;3.33;;;;;;;12.32;100.00;102915.84;5023433;28;20550;-78
2023/05/30 03:29:07;;;;;;;7.23;3.13;;;;;;;10.70;100.00;102669.94;5021170;28;20492;-78
2023/05/30 03:31:33;;;;;;;7.83;2.70;;;;;;;10.19;100.00;102584.66;5020771;28;20464;-78
2023/05/30 03:33:59;;;;;;;7.27;2.93;;;;;;;10.00;100.00;102528.50;5023352;28;20544;-79
2023/05/30 03:36:25;;;;;;;7.90;2.60;;;;;;;9.89;100.00;102505.47;5006087;28;20427;-80
2023/05/30 03:38:53;;;;;;;7.67;2.97;;;;;;;11.85;100.00;102839.06;5002188;28;20443;-80
2023/05/30 03:41:18;;;;;;;11.67;3.20;;;;;;;10.51;100.00;102650.34;5005491;28;20925;-79
2023/05/30 03:43:44;;;;;;;9.87;2.67;;;;;;;11.45;100.00;102796.59;5023363;28;20466;-80
2023/05/30 03:46:10;;;;;;;12.00;3.03;;;;;;;12.33;100.00;102931.00;5023827;28;20243;-78
2023/05/30 03:48:35;;;;;;;11.13;2.60;;;;;;;10.89;100.00;102707.38;5024074;28;20200;-77
2023/05/30 03:51:00;;;;;;;7.10;2.90;;;;;;;10.93;100.00;102707.88;5022744;28;20189;-77
2023/05/30 03:53:26;;;;;;;7.93;2.67;;;;;;;11.87;100.00;102890.84;5012026;28;20197;-77
2023/05/30 03:55:51;;;;;;;7.67;2.77;;;;;;;10.86;100.00;102713.88;5024879;28;20673;-78
2023/05/30 03:58:17;;;;;;;7.83;3.10;;;;;;;10.23;100.00;102640.66;5018422;28;20192;-77
2023/05/30 04:00:42;;;;;;;14.50;3.17;;;;;;;10.00;100.00;102576.75;5022399;28;20216;-77
2023/05/30 04:03:08;;;;;;;10.20;2.87;;;;;;;10.06;100.00;102604.78;5022224;28;20211;-78
2023/05/30 04:05:33;;;;;;;7.00;2.67;;;;;;;11.43;100.00;102796.75;5023820;28;20177;-78
2023/05/30 04:07:59;;;;;;;6.53;2.97;;;;;;;10.45;100.00;102634.03;5020829;28;20243;-78
2023/05/30 04:10:24;;;;;;;10.00;2.80;;;;;;;10.82;100.00;102746.56;5020906;28;20184;-77
2023/05/30 04:12:50;;;;;;;7.20;3.07;;;;;;;10.62;100.00;102705.63;5008217;28;20584;-78
2023/05/30 04:15:15;;;;;;;10.57;3.30;;;;;;;9.54;100.00;102527.69;5018542;28;20208;-78
2023/05/30 04:17:41;;;;;;;12.30;2.83;;;;;;;9.99;100.00;102601.03;5005339;28;20194;-78
2023/05/30 04:20:10;;;;;;;8.87;3.00;;;;;;;10.67;100.00;102753.47;5000738;28;20188;-77
2023/05/30 04:22:35;;;;;;;8.30;2.80;;;;;;;10.06;100.00;102634.28;5022040;28;20572;-77
2023/05/30 04:25:01;;;;;;;6.50;2.50;;;;;;;10.84;100.00;102782.16;5020921;28;20450;-78
2023/05/30 04:27:27;;;;;;;10.43;2.83;;;;;;;10.86;100.00;102756.00;5021039;28;20285;-77
2023/05/30 04:29:53;;;;;;;5.50;2.33;;;;;;;12.10;100.00;102947.66;5023034;28;20794;-77
2023/05/30 04:32:19;;;;;;;8.10;2.90;;;;;;;10.04;100.00;102614.81;5016631;28;20209;-78
2023/05/30 04:34:45;;;;;;;7.50;2.53;;;;;;;11.71;100.00;102904.13;5020763;28;20470;-78
2023/05/30 04:37:17;;;;;;;8.00;3.17;;;;;;;10.95;100.00;102770.34;5007160;28;20181;-77
2023/05/30 04:39:44;;;;;;;6.70;2.80;;;;;;;11.35;100.00;102858.50;5007194;28;20435;-78
2023/05/30 04:42:09;;;;;;;6.87;2.10;;;;;;;10.09;100.00;102661.63;5006637;28;20937;-77
2023/05/30 04:44:37;;;;;;;6.87;2.67;;;;;;;10.17;100.00;102634.91;5021912;28;20490;-77
2023/05/30 04:47:07;;;;;;;5.90;2.67;;;;;;;12.27;100.00;102994.38;5016602;23;20229;-63
2023/05/30 04:49:33;;;;;;;5.63;2.20;;;;;;;12.30;100.00;102988.66;5020156;28;20482;-64
2023/05/30 04:51:58;;;;;;;6.10;2.47;;;;;;;12.38;100.00;102985.16;5023073;28;20456;-64
2023/05/30 04:54:27;;;;;;;6.70;2.83;;;;;;;12.34;100.00;102965.81;5029839;28;20212;-64
2023/05/30 04:56:52;;;;;;;9.60;2.93;;;;;;;12.01;100.00;102954.00;5041179;28;20192;-63
2023/05/30 04:59:17;;;;;;;6.37;2.17;;;;;;;12.35;100.00;102986.34;5042364;28;20431;-64
2023/05/30 05:01:45;;;;;;;8.50;2.00;;;;;;;12.31;100.00;102984.97;5041389;28;20196;-63
2023/05/30 05:04:11;;;;;;;7.20;2.00;;;;;;;12.02;100.00;102966.44;5041288;28;20198;-64
2023/05/30 05:06:37;;;;;;;8.67;2.77;;;;;;;12.27;100.00;102998.91;5041319;28;20928;-63
2023/05/30 05:09:02;;;;;;;5.70;2.20;;;;;;;12.24;100.00;103001.88;5040856;28;20434;-63
2023/05/30 05:11:27;;;;;;;8.13;2.37;;;;;;;12.28;100.00;103004.13;5038395;28;20215;-63
2023/05/30 05:13:53;;;;;;;9.20;2.60;;;;;;;12.34;100.00;103006.19;5039814;28;20235;-63
2023/05/30 05:16:18;;;;;;;8.33;2.60;;;;;;;12.22;100.00;103010.13;5039660;28;20608;-64
2023/05/30 05:18:44;;;;;;;5.10;2.10;;;;;;;12.13;100.00;102997.63;5040688;28;20214;-65
2023/05/30 05:21:10;;;;;;;7.93;3.27;;;;;;;12.23;100.00;103030.66;5039097;28;20291;-64
2023/05/30 05:23:35;;;;;;;7.47;2.60;;;;;;;12.19;100.00;103021.22;5038255;28;20262;-63
2023/05/30 05:26:01;;;;;;;6.97;2.73;;;;;;;12.18;100.00;103036.50;5036867;28;20215;-63
2023/05/30 05:28:26;;;;;;;3.90;2.10;;;;;;;12.23;100.00;103035.19;5040130;28;20200;-64
2023/05/30 05:30:52;;;;;;;9.10;2.60;;;;;;;12.05;100.00;103024.44;5039328;28;20195;-64
2023/05/30 05:33:18;;;;;;;7.17;2.47;;;;;;;12.30;100.00;103044.34;5021254;28;20278;-64
2023/05/30 05:35:46;;;;;;;7.27;2.40;;;;;;;12.32;100.00;103043.16;5040428;28;20278;-64
2023/05/30 05:38:13;;;;;;;6.83;2.67;;;;;;;12.23;100.00;103041.41;5036288;28;20314;-64
2023/05/30 05:40:38;;;;;;;9.57;3.53;;;;;;;12.35;100.00;103037.50;5029834;28;21170;-63
2023/05/30 05:43:04;;;;;;;7.00;2.67;;;;;;;12.38;100.00;103031.78;5039647;28;20472;-63
2023/05/30 05:45:29;;;;;;;4.90;2.17;;;;;;;12.30;100.00;103029.03;5036347;28;20220;-64
2023/05/30 05:47:55;;;;;;;7.80;2.57;;;;;;;12.18;100.00;103043.75;5035883;28;20196;-63
2023/05/30 05:50:20;;;;;;;7.20;2.60;;;;;;;12.20;100.00;103057.88;5035490;28;20188;-63
2023/05/30 05:52:46;;;;;;;5.27;2.50;;;;;;;12.18;100.00;103073.34;5039695;28;20253;-63
2023/05/30 05:55:11;;;;;;;6.17;2.60;;;;;;;12.25;100.00;103093.22;5035988;28;20219;-64
2023/05/30 05:57:36;;;;;;;6.80;3.20;;;;;;;12.48;100.00;103081.97;5037093;28;20254;-63
2023/05/30 06:00:05;;;;;;;6.13;2.43;;;;;;;12.23;100.00;103103.28;5040123;28;20785;-64
2023/05/30 06:02:31;;;;;;;5.60;2.53;;;;;;;12.21;100.00;103086.47;5023029;28;20202;-63
2023/05/30 06:04:56;;;;;;;5.67;2.40;;;;;;;12.18;100.00;103084.09;5038175;28;20968;-63
2023/05/30 06:07:22;;;;;;;5.70;2.50;;;;;;;12.34;100.00;103112.97;5036911;28;20199;-64
2023/05/30 06:09:47;;;;;;;8.13;2.73;;;;;;;12.27;100.00;103052.72;5039063;28;20187;-63
2023/05/30 06:12:13;;;;;;;5.77;2.10;;;;;;;12.51;100.00;103098.66;5041007;28;20190;-63
2023/05/30 06:14:38;;;;;;;4.60;2.20;;;;;;;12.35;100.00;103071.59;5039270;28;20208;-63
2023/05/30 06:17:04;;;;;;;4.23;1.63;;;;;;;12.48;100.00;103082.81;5037793;28;20243;-63
2023/05/30 06:19:30;;;;;;;6.60;2.40;;;;;;;12.32;100.00;103048.53;5038698;28;20192;-63
2023/05/30 06:21:55;;;;;;;6.20;1.80;;;;;;;12.61;100.00;103087.78;5038328;28;20454;-63
2023/05/30 06:24:21;;;;;;;7.23;1.90;;;;;;;12.46;100.00;103063.28;5040502;28;20215;-64
2023/05/30 06:26:46;;;;;;;4.33;1.47;;;;;;;12.51;100.00;103057.44;5037812;28;20180;-63
2023/05/30 06:29:11;;;;;;;4.50;2.03;;;;;;;12.35;100.00;103040.19;5038852;28;20272;-63
2023/05/30 06:31:37;;;;;;;4.33;1.73;;;;;;;11.99;100.00;102986.41;5037402;28;21046;-63
2023/05/30 06:34:02;;;;;;;4.73;1.80;;;;;;;12.28;100.00;103118.97;5038568;28;20222;-63
2023/05/30 06:36:28;;;;;;;8.27;2.27;;;;;;;12.19;100.00;103140.44;5040155;28;20684;-63
2023/05/30 06:38:53;;;;;;;3.30;1.40;;;;;;;12.36;100.00;103151.34;5037770;28;20661;-64
2023/05/30 06:41:19;;;;;;;2.30;1.50;;;;;;;12.47;100.00;103152.94;5037737;28;20670;-63
2023/05/30 06:43:44;;;;;;;3.57;1.50;;;;;;;12.32;100.00;103168.78;5036639;28;20689;-63
2023/05/30 06:46:10;;;;;;;3.23;1.47;;;;;;;12.40;100.00;103185.03;5037258;28;20199;-63
2023/05/30 06:48:35;;;;;;;3.50;1.80;;;;;;;12.47;100.00;103172.66;5040612;28;20191;-64
2023/05/30 06:51:01;;;;;;;5.70;1.67;;;;;;;12.40;100.00;103150.88;5042200;28;20249;-63
2023/05/30 06:53:26;;;;;;;4.43;1.50;;;;;;;12.56;100.00;103152.88;5042179;28;20195;-64
2023/05/30 06:55:52;;;;;;;3.00;1.40;;;;;;;12.14;100.00;103072.78;5044238;28;20223;-63
2023/05/30 06:58:18;;;;;;;6.07;1.50;;;;;;;12.43;100.00;103118.25;5037455;28;20627;-63
2023/05/30 07:00:43;;;;;;;3.40;1.43;;;;;;;12.03;100.00;103053.34;5039713;28;20195;-63
2023/05/30 07:03:09;;;;;;;2.97;1.50;;;;;;;12.50;100.00;103145.44;5041560;28;20823;-63
2023/05/30 07:05:34;;;;;;;3.17;1.50;;;;;;;12.25;100.00;103155.13;5042520;28;20595;-63
2023/05/30 07:08:00;;;;;;;4.13;1.53;;;;;;;11.86;100.00;103104.31;5041995;28;20689;-63
2023/05/30 07:10:25;;;;;;;5.80;1.50;;;;;;;12.33;100.00;103213.56;5040417;28;20191;-63
2023/05/30 07:12:52;;;;;;;2.60;1.27;;;;;;;12.47;100.00;103201.41;5040862;28;20566;-64
2023/05/30 07:15:18;;;;;;;3.90;1.27;;;;;;;12.29;100.00;103169.94;5040064;28;20208;-63
2023/05/30 07:17:43;;;;;;;4.20;1.13;;;;;;;12.45;100.00;103215.03;5041294;28;20453;-64
2023/05/30 07:20:09;;;;;;;3.33;1.30;;;;;;;12.72;100.00;103246.41;5040638;28;20214;-63
2023/05/30 07:22:34;;;;;;;2.73;1.10;;;;;;;12.75;100.00;103200.31;5042525;28;20203;-64
2023/05/30 07:25:00;;;;;;;2.97;1.30;;;;;;;12.77;100.00;103182.16;5040364;28;20212;-63
2023/05/30 07:27:25;;;;;;;4.20;1.13;;;;;;;12.76;100.00;103131.16;5020856;28;20263;-63
2023/05/30 07:29:50;;;;;;;1.93;1.17;;;;;;;12.64;100.00;103114.38;5040833;28;20188;-65
2023/05/30 07:32:16;;;;;;;4.80;1.50;;;;;;;12.45;100.00;103085.81;5041796;28;20207;-63
2023/05/30 07:34:42;;;;;;;3.50;1.10;;;;;;;12.52;100.00;103067.19;5039560;28;20639;-64
2023/05/30 07:37:07;;;;;;;4.63;1.17;;;;;;;12.63;100.00;103088.47;5025994;28;20243;-63
2023/05/30 07:39:33;;;;;;;1.83;1.03;;;;;;;12.78;100.00;103138.06;5042960;28;20187;-63
2023/05/30 07:41:58;;;;;;;1.60;0.83;;;;;;;12.61;100.00;103087.78;5041415;28;20188;-63
2023/05/30 07:44:24;;;;;;;1.10;0.80;;;;;;;12.74;100.00;103119.69;5042422;28;20208;-63
2023/05/30 07:46:51;;;;;;;1.27;0.80;;;;;;;12.79;100.00;103110.16;5045984;28;20685;-63
2023/05/30 07:49:16;;;;;;;0.80;0.60;;;;;;;12.74;100.00;103079.31;5048253;28;20187;-63
2023/05/30 07:51:43;;;;;;;1.30;0.60;;;;;;;12.75;100.00;103067.53;5047249;28;20514;-64
2023/05/30 07:54:09;;;;;;;0.90;0.60;;;;;;;12.79;100.00;103042.81;5044869;28;21112;-64
2023/05/30 07:56:34;;;;;;;2.17;0.70;;;;;;;12.80;100.00;103031.03;5043605;28;20427;-64
2023/05/30 07:59:00;;;;;;;1.13;0.60;;;;;;;13.05;100.00;103025.78;5040720;28;20730;-64
2023/05/30 08:01:27;;;;;;;1.87;0.60;;;;;;;13.00;100.00;103014.63;5042411;28;20216;-64
2023/05/30 08:03:52;;;;;;;0.80;0.60;;;;;;;13.19;100.00;103019.78;5043060;28;20186;-64
2023/05/30 08:06:19;;;;;;;1.87;0.73;;;;;;;13.09;100.00;103021.75;5027057;28;20433;-64
2023/05/30 08:08:45;;;;;;;0.70;0.60;;;;;;;13.19;100.00;103008.13;5044185;28;20230;-64
2023/05/30 08:11:11;;;;;;;2.00;0.60;;;;;;;12.92;100.00;102966.09;5045446;28;20971;-64
2023/05/30 08:13:38;;;;;;;1.10;0.70;;;;;;;13.20;100.00;103004.44;5044368;28;20852;-63
2023/05/30 08:16:04;;;;;;;0.80;0.63;;;;;;;13.24;100.00;102974.28;5040034;28;20457;-63
2023/05/30 08:18:31;;;;;;;1.57;0.80;;;;;;;13.09;100.00;102997.50;5043599;28;20485;-63
2023/05/30 08:20:56;;;;;;;1.30;0.60;;;;;;;13.34;100.00;102984.97;5042827;28;20442;-64
2023/05/30 08:23:22;;;;;;;1.63;0.60;;;;;;;13.30;100.00;102973.66;5042787;28;20465;-64
2023/05/30 08:25:48;;;;;;;1.30;0.70;;;;;;;13.18;100.00;102980.34;5042729;28;20198;-63
2023/05/30 08:28:14;;;;;;;1.20;0.60;;;;;;;13.16;100.00;102968.03;5042034;28;20570;-64
2023/05/30 08:30:42;;;;;;;2.80;0.70;;;;;;;13.22;100.00;102997.88;5043055;28;20426;-63
2023/05/30 08:33:10;;;;;;;1.40;0.80;;;;;;;13.18;100.00;103001.06;5042540;28;20575;-63
2023/05/30 08:35:35;;;;;;;3.00;1.20;;;;;;;13.15;100.00;102998.69;5041854;28;20557;-63
2023/05/30 08:38:00;;;;;;;4.03;0.87;;;;;;;13.16;100.00;102973.41;5041588;28;20817;-63
2023/05/30 08:40:26;;;;;;;1.83;0.87;;;;;;;13.06;100.00;102968.19;5041156;28;20180;-64
2023/05/30 08:42:52;;;;;;;2.93;0.73;;;;;;;13.08;100.00;103001.19;5043750;28;20241;-63
2023/05/30 08:45:19;;;;;;;1.87;0.83;;;;;;;13.17;100.00;102977.81;5041678;28;20208;-63
2023/05/30 08:47:45;;;;;;;3.13;0.93;;;;;;;13.10;100.00;102956.06;5041849;28;20188;-64
2023/05/30 08:50:12;;;;;;;2.60;1.30;;;;;;;13.03;100.00;102949.66;5042788;28;20423;-64
2023/05/30 08:52:40;;;;;;;3.60;0.80;;;;;;;12.73;100.00;102953.72;5025149;28;20191;-63
2023/05/30 08:55:11;;;;;;;3.97;1.20;;;;;;;12.59;100.00;102887.91;5042364;28;20477;-63
2023/05/30 08:57:52;;;;;;;1.73;0.90;;;;;;;13.26;100.00;102961.53;5041789;28;20556;-64
2023/05/30 09:00:18;;;;;;;1.50;0.80;;;;;;;13.34;100.00;102958.03;5041632;28;20483;-64
2023/05/30 09:02:43;;;;;;;1.40;0.97;;;;;;;13.15;100.00;102952.88;5041822;28;20418;-64
2023/05/30 09:05:12;;;;;;;2.00;0.70;;;;;;;13.39;100.00;102965.59;5042204;28;20453;-64
2023/05/30 09:07:39;;;;;;;2.07;0.70;;;;;;;13.50;100.00;102944.56;5040926;28;20899;-64
2023/05/30 09:10:07;;;;;;;1.37;0.60;;;;;;;13.39;100.00;102909.81;5041024;28;20426;-65
2023/05/30 09:12:32;;;;;;;1.50;0.80;;;;;;;13.17;100.00;102945.50;5038667;28;20443;-63
2023/05/30 09:14:58;;;;;;;2.03;0.83;;;;;;;13.62;100.00;102963.94;5041174;28;20477;-63
2023/05/30 09:17:24;;;;;;;1.80;0.90;;;;;;;13.62;100.00;102965.81;5041855;28;20181;-64
2023/05/30 09:19:50;;;;;;;1.33;0.70;;;;;;;13.65;100.00;102952.81;5041811;28;20887;-64
2023/05/30 09:22:16;;;;;;;1.13;0.70;;;;;;;13.66;100.00;102937.50;5041112;28;20184;-63
2023/05/30 09:25:03;;;;;;;1.00;0.67;;;;;;;13.79;100.00;102970.19;5039770;28;20443;-64
2023/05/30 09:27:35;;;;;;;1.00;0.80;;;;;;;13.86;100.00;102965.00;5042728;28;20275;-64
2023/05/30 09:30:09;;;;;;;0.90;0.70;;;;;;;13.71;100.00;102954.88;5040438;28;20812;-64
2023/05/30 09:32:36;;;;;;;0.90;0.70;;;;;;;13.66;100.00;102959.91;5042033;28;21002;-64
2023/05/30 09:35:10;;;;;;;2.10;0.80;;;;;;;13.74;100.00;102975.25;5024550;28;20470;-64
2023/05/30 09:37:41;;;;;;;1.20;0.80;;;;;;;13.57;100.00;102993.28;5041921;28;20434;-63
2023/05/30 09:40:15;;;;;;;0.87;0.80;;;;;;;13.50;100.00;103000.34;5040822;28;20433;-64
2023/05/30 09:42:46;;;;;;;0.80;0.70;;;;;;;13.38;100.00;103010.59;5040516;28;20508;-64
2023/05/30 09:45:18;;;;;;;1.07;0.70;;;;;;;13.48;100.00;103018.50;5041726;28;20469;-64
2023/05/30 09:47:48;;;;;;;1.27;0.73;;;;;;;13.40;100.00;103013.97;5040215;28;20445;-64
2023/05/30 09:50:15;;;;;;;0.90;0.70;;;;;;;13.46;100.00;103020.56;5023945;28;20431;-64
2023/05/30 09:52:42;;;;;;;1.10;0.70;;;;;;;12.98;100.00;102923.19;5041738;28;20433;-64
2023/05/30 09:55:08;;;;;;;2.40;1.00;;;;;;;13.43;100.00;102986.69;5038291;28;20478;-63
2023/05/30 09:57:37;;;;;;;1.97;0.80;;;;;;;13.70;100.00;102998.16;5029402;28;20439;-64
2023/05/30 10:00:13;;;;;;;1.00;0.90;;;;;;;13.78;100.00;102990.94;5041063;28;20857;-64
2023/05/30 10:02:44;;;;;;;1.57;0.80;;;;;;;13.98;100.00;102986.06;5041415;28;20427;-64
2023/05/30 10:05:24;;;;;;;3.33;0.80;;;;;;;13.90;100.00;102947.44;5041282;28;21101;-64
2023/05/30 10:07:52;;;;;;;1.10;0.70;;;;;;;13.92;100.00;102958.91;5040039;28;20438;-64
2023/05/30 10:10:18;;;;;;;1.57;0.70;;;;;;;13.99;100.00;102978.78;5039793;28;20935;-64
2023/05/30 10:12:50;;;;;;;1.27;0.70;;;;;;;13.86;100.00;102959.59;5040483;28;20430;-64
2023/05/30 10:15:16;;;;;;;2.67;0.80;;;;;;;14.05;100.00;102966.47;5039452;28;20466;-64
2023/05/30 10:17:53;;;;;;;0.80;0.60;;;;;;;13.87;100.00;102956.72;5039829;28;20419;-64
2023/05/30 10:20:21;;;;;;;1.30;1.10;;;;;;;13.84;100.00;102942.72;5039730;28;20889;-64
2023/05/30 10:22:52;;;;;;;1.20;0.73;;;;;;;14.03;100.00;102972.06;5028808;28;20444;-64
2023/05/30 10:25:18;;;;;;;1.77;0.70;;;;;;;13.99;100.00;102949.13;5038333;28;20455;-64
2023/05/30 10:27:56;;;;;;;2.40;1.23;;;;;;;14.07;100.00;102978.78;5041088;28;20434;-64
2023/05/30 10:30:25;;;;;;;1.10;0.70;;;;;;;13.98;100.00;102980.66;5039232;28;20441;-64
2023/05/30 10:33:01;;;;;;;1.07;0.83;;;;;;;13.79;100.00;102970.19;5039978;28;20433;-66
2023/05/30 10:35:29;;;;;;;1.83;0.80;;;;;;;13.72;100.00;102979.97;5038272;28;20473;-65
2023/05/30 10:37:55;;;;;;;1.37;0.90;;;;;;;13.79;100.00;102965.63;5036013;28;20438;-64
2023/05/30 10:41:00;;;;;;;1.27;0.90;;;;;;;13.97;100.00;102988.91;5041183;28;20477;-64
2023/05/30 10:43:43;;;;;;;1.27;0.80;;;;;;;14.02;100.00;102987.38;5040576;28;20425;-64
2023/05/30 10:46:17;;;;;;;1.57;0.80;;;;;;;14.14;100.00;102981.66;5039477;28;20464;-64
2023/05/30 10:48:57;;;;;;;1.47;1.00;;;;;;;12.60;100.00;102765.75;5023279;22;20534;-79
2023/05/30 10:51:23;;;;;;;1.73;0.90;;;;;;;13.96;100.00;103014.22;4983581;28;20841;-79
2023/05/30 10:53:49;;;;;;;1.67;0.80;;;;;;;13.36;100.00;102883.22;5000279;28;20440;-80
2023/05/30 10:56:38;;;;;;;1.10;0.90;;;;;;;12.65;100.00;102766.09;4998475;28;20189;-79
2023/05/30 10:59:14;;;;;;;1.10;0.90;;;;;;;13.18;100.00;102869.84;5000816;28;20447;-79
2023/05/30 11:01:40;;;;;;;2.03;0.90;;;;;;;12.83;100.00;102788.31;5000123;28;20907;-80
2023/05/30 11:04:13;;;;;;;1.27;0.90;;;;;;;11.86;100.00;102604.16;4998885;28;20420;-79
2023/05/30 11:06:45;;;;;;;4.77;1.23;;;;;;;12.81;100.00;102797.56;4989122;28;20515;-80
2023/05/30 11:09:15;;;;;;;0.83;0.80;;;;;;;12.49;100.00;102726.50;4999873;28;20870;-79
2023/05/30 11:11:53;;;;;;;1.00;0.80;;;;;;;14.14;100.00;102966.28;5000852;28;20416;-80
2023/05/30 11:14:25;;;;;;;1.30;0.90;;;;;;;13.03;100.00;102793.41;4987656;28;20861;-80
2023/05/30 11:17:00;;;;;;;1.40;0.90;;;;;;;12.62;100.00;102751.09;4994648;28;20466;-79
2023/05/30 11:19:39;;;;;;;2.03;1.00;;;;;;;13.65;100.00;102865.69;4999489;28;20412;-80